createdAt,value
2023-01-25T00:04:59.822Z,47.3
2023-01-25T00:10:18.283Z,47.4
2023-01-25T00:15:36.493Z,46.9
2023-01-25T00:20:54.722Z,47
2023-01-25T00:26:12.810Z,46.7
2023-01-25T00:31:31.523Z,47.4
2023-01-25T00:36:49.837Z,47.4
2023-01-25T00:42:08.575Z,47.1
2023-01-25T00:47:27.153Z,47.6
2023-01-25T00:52:45.658Z,46.4
2023-01-25T00:58:04.271Z,47.3
2023-01-25T01:03:22.479Z,46.8
2023-01-25T01:08:41.589Z,47
2023-01-25T01:14:00.180Z,47.6
2023-01-25T01:19:18.664Z,47.5
2023-01-25T01:24:37.198Z,46.8
2023-01-25T01:29:55.568Z,46.8
2023-01-25T01:35:14.053Z,47.8
2023-01-25T01:40:32.854Z,47.8
2023-01-25T01:45:51.406Z,47.4
2023-01-25T01:51:10.202Z,47.3
2023-01-25T01:56:12.898Z,47.9
2023-01-25T02:01:31.317Z,47.9
2023-01-25T02:06:50.040Z,48
2023-01-25T02:12:08.589Z,47.9
2023-01-25T02:17:27.099Z,47.2
2023-01-25T02:22:45.297Z,47.4
2023-01-25T02:28:03.862Z,47.1
2023-01-25T02:33:22.320Z,47.7
2023-01-25T02:38:40.792Z,47.8
2023-01-25T02:43:59.033Z,46.6
2023-01-25T02:49:17.280Z,47.2
2023-01-25T02:54:35.459Z,47.7
2023-01-25T02:59:53.993Z,47.6
2023-01-25T03:05:12.658Z,47.9
2023-01-25T03:10:30.884Z,47.3
2023-01-25T03:15:49.446Z,47.9
2023-01-25T03:21:07.650Z,47.7
2023-01-25T03:26:26.440Z,47.7
2023-01-25T03:31:45.026Z,48
2023-01-25T03:37:03.765Z,47.3
2023-01-25T03:42:22.563Z,48
2023-01-25T03:47:41.234Z,47.2
2023-01-25T03:52:59.440Z,47.3
2023-01-25T03:58:18.289Z,47.2
2023-01-25T04:03:36.545Z,47.1
2023-01-25T04:08:55.534Z,46.9
2023-01-25T04:14:14.085Z,47.8
2023-01-25T04:19:33.019Z,47
2023-01-25T04:24:51.494Z,46.9
2023-01-25T04:30:09.977Z,47.6
2023-01-25T04:35:27.968Z,46.7
2023-01-25T04:40:46.362Z,47.8
2023-01-25T04:46:05.231Z,47.1
2023-01-25T04:51:23.555Z,47.1
2023-01-25T04:56:41.737Z,47.7
2023-01-25T05:01:59.937Z,47.7
2023-01-25T05:07:18.308Z,47.9
2023-01-25T05:12:36.778Z,47.9
2023-01-25T05:17:55.163Z,47.6
2023-01-25T05:23:13.958Z,47
2023-01-25T05:28:32.648Z,47.8
2023-01-25T05:33:51.225Z,47.2
2023-01-25T05:39:09.965Z,46.3
2023-01-25T05:44:28.185Z,46
2023-01-25T05:49:46.674Z,46.3
2023-01-25T05:55:04.916Z,47.3
2023-01-25T06:00:23.430Z,47.4
2023-01-25T06:05:41.924Z,46.9
2023-01-25T06:10:45.104Z,46.6
2023-01-25T06:16:03.473Z,46.7
2023-01-25T06:21:22.415Z,47.6
2023-01-25T06:26:40.913Z,47.2
2023-01-25T06:32:00.125Z,46.2
2023-01-25T06:37:18.397Z,46.2
2023-01-25T06:42:37.153Z,46.2
2023-01-25T06:47:55.367Z,47.1
2023-01-25T06:53:14.187Z,46.1
2023-01-25T06:58:32.428Z,46.8
2023-01-25T07:03:51.019Z,46.8
2023-01-25T07:08:53.908Z,46.2
2023-01-25T07:14:12.440Z,46.9
2023-01-25T07:19:31.067Z,46.4
2023-01-25T07:24:49.923Z,46.9
2023-01-25T07:30:08.766Z,47.1
2023-01-25T07:35:27.597Z,46.2
2023-01-25T07:40:46.084Z,46.7
2023-01-25T07:46:04.951Z,46.2
2023-01-25T07:51:24.062Z,46.7
2023-01-25T07:56:42.997Z,46.2
2023-01-25T08:02:01.680Z,46.1
2023-01-25T08:07:20.520Z,46.6
2023-01-25T08:12:39.273Z,46.3
2023-01-25T08:17:57.724Z,46.6
2023-01-25T08:23:16.079Z,46.7
2023-01-25T08:28:18.666Z,46.1
2023-01-25T08:33:36.645Z,46.3
2023-01-25T08:38:55.391Z,46.4
2023-01-25T08:44:13.867Z,46.3
2023-01-25T08:49:32.716Z,46.9
2023-01-25T08:54:50.924Z,46.8
2023-01-25T09:00:11.499Z,46.3
2023-01-25T09:05:30.414Z,46
2023-01-25T09:10:48.911Z,46.8
2023-01-25T09:16:07.653Z,46
2023-01-25T09:21:25.976Z,46.3
2023-01-25T09:27:00.388Z,46.3
2023-01-25T09:32:19.100Z,46
2023-01-25T09:37:37.777Z,46
2023-01-25T09:47:49.481Z,46.3
2023-01-25T09:53:08.235Z,45.7
2023-01-25T09:58:26.991Z,46.3
2023-01-25T10:03:46.043Z,46.3
2023-01-25T10:09:04.723Z,45.4
2023-01-25T10:14:23.220Z,45.6
2023-01-25T10:19:26.094Z,45.2
2023-01-25T10:24:28.899Z,45.3
2023-01-25T10:29:49.479Z,45
2023-01-25T10:35:08.119Z,46.2
2023-01-25T10:40:26.507Z,45.9
2023-01-25T10:45:45.331Z,46.2
2023-01-25T10:51:03.652Z,46
2023-01-25T10:56:22.339Z,46.1
2023-01-25T11:01:41.296Z,45.2
2023-01-25T11:06:59.557Z,44.4
2023-01-25T11:12:17.843Z,44.7
2023-01-25T11:17:36.290Z,45.2
2023-01-25T11:22:54.822Z,45.4
2023-01-25T11:28:13.370Z,44.9
2023-01-25T11:33:31.823Z,45.4
2023-01-25T11:38:50.306Z,44.3
2023-01-25T11:44:08.810Z,44.7
2023-01-25T11:49:26.990Z,45.4
2023-01-25T11:54:30.148Z,44.9
2023-01-25T11:59:33.617Z,44.7
2023-01-25T12:04:41.727Z,44.8
2023-01-25T12:10:00.574Z,44.9
2023-01-25T12:15:18.809Z,45.2
2023-01-25T12:20:37.709Z,44.7
2023-01-25T12:25:56.853Z,45.3
2023-01-25T12:31:16.783Z,45.3
2023-01-25T12:36:34.983Z,45.7
2023-01-25T12:41:53.908Z,45
2023-01-25T12:47:15.807Z,45.7
2023-01-25T12:52:34.252Z,45.4
2023-01-25T12:57:52.755Z,44.8
2023-01-25T13:03:11.055Z,44.6
2023-01-25T13:08:32.835Z,45.5
2023-01-25T13:13:51.357Z,44.7
2023-01-25T13:19:09.631Z,44.3
2023-01-25T13:24:28.415Z,44.5
2023-01-25T13:29:46.320Z,44.9
2023-01-25T13:35:07.604Z,45
2023-01-25T13:40:26.083Z,45.3
2023-01-25T13:45:44.933Z,44.6
2023-01-25T13:51:04.007Z,44.9
2023-01-25T13:56:22.417Z,44.1
2023-01-25T14:01:41.009Z,44.5
2023-01-25T14:06:59.573Z,44.9
2023-01-25T14:12:18.058Z,44
2023-01-25T14:17:36.738Z,44.4
2023-01-25T14:22:54.967Z,44.1
2023-01-25T14:28:13.736Z,45.3
2023-01-25T14:33:31.698Z,45.1
2023-01-25T14:38:50.246Z,44
2023-01-25T14:44:08.484Z,45.7
2023-01-25T14:49:27.098Z,45.4
2023-01-25T14:54:45.650Z,44.4
2023-01-25T15:00:04.143Z,44.9
2023-01-25T15:05:23.231Z,44.8
2023-01-25T15:10:41.742Z,44.4
2023-01-25T15:16:00.455Z,44
2023-01-25T15:21:19.295Z,44.2
2023-01-25T15:26:38.045Z,44.1
2023-01-25T15:31:56.304Z,44.6
2023-01-25T15:37:15.101Z,44.1
2023-01-25T15:42:33.642Z,44.7
2023-01-25T15:47:52.461Z,44.2
2023-01-25T15:53:11.019Z,44.8
2023-01-25T15:58:29.939Z,44.3
2023-01-25T16:03:48.211Z,44.3
2023-01-25T16:09:06.749Z,44.8
2023-01-25T16:14:25.204Z,45.2
2023-01-25T16:19:43.660Z,44.6
2023-01-25T16:25:16.675Z,45
2023-01-25T16:30:36.079Z,44.6
2023-01-25T16:35:54.587Z,44.5
2023-01-25T16:41:13.373Z,44
2023-01-25T16:46:31.933Z,44.2
2023-01-25T16:51:50.775Z,44
2023-01-25T16:57:21.312Z,44.2
2023-01-25T17:02:59.695Z,44.8
2023-01-25T17:08:18.263Z,45.4
2023-01-25T17:13:37.016Z,43.2
2023-01-25T17:18:55.308Z,43.1
2023-01-25T17:24:13.835Z,44.5
2023-01-25T17:29:32.378Z,44.8
2023-01-25T17:34:51.172Z,44
2023-01-25T17:40:11.881Z,44.7
2023-01-25T17:45:30.474Z,45.3
2023-01-25T17:50:48.851Z,44.7
2023-01-25T17:56:07.097Z,44.4
2023-01-25T18:01:25.478Z,43.7
2023-01-25T18:06:44.499Z,44.1
2023-01-25T18:12:02.668Z,44.2
2023-01-25T18:17:20.981Z,43.7
2023-01-25T18:22:23.908Z,44.2
2023-01-25T18:27:42.480Z,43.5
2023-01-25T18:33:00.994Z,44.8
2023-01-25T18:38:19.206Z,44.1
2023-01-25T18:43:37.987Z,44.1
2023-01-25T18:48:56.643Z,43.9
2023-01-25T18:54:15.498Z,44.1
2023-01-25T18:59:33.954Z,44.9
2023-01-25T19:04:52.261Z,44.6
2023-01-25T19:10:11.892Z,44.7
2023-01-25T19:15:30.355Z,44.2
2023-01-25T19:20:49.147Z,44.8
2023-01-25T19:26:07.878Z,44.4
2023-01-25T19:31:26.915Z,44.4
2023-01-25T19:36:45.773Z,44.8
2023-01-25T19:42:04.266Z,45.2
2023-01-25T19:47:23.545Z,44.8
2023-01-25T19:52:42.362Z,44.7
2023-01-25T19:58:00.904Z,44.6
2023-01-25T20:03:19.141Z,44.8
2023-01-25T20:08:37.997Z,45.4
2023-01-25T20:13:56.809Z,45.4
2023-01-25T20:19:15.293Z,45.2
2023-01-25T20:24:34.156Z,45
2023-01-25T20:29:52.737Z,45.2
2023-01-25T20:35:12.317Z,45.3
2023-01-25T20:40:31.283Z,43.4
2023-01-25T20:45:50.122Z,45
2023-01-25T20:51:11.840Z,45
2023-01-25T20:56:15.010Z,45.1
2023-01-25T21:01:34.483Z,45.9
2023-01-25T21:06:53.251Z,45.6
2023-01-25T21:12:12.057Z,45.9
2023-01-25T21:17:30.858Z,46.6
2023-01-25T21:22:49.665Z,45.9
2023-01-25T21:28:08.151Z,46.2
2023-01-25T21:33:26.365Z,45.8
2023-01-25T21:38:44.782Z,45.6
2023-01-25T21:44:03.006Z,46.1
2023-01-25T21:49:21.543Z,45.7
2023-01-25T21:54:40.018Z,46.5
2023-01-25T21:59:58.608Z,45.7
2023-01-25T22:05:17.105Z,46.3
2023-01-25T22:10:35.855Z,45.7
2023-01-25T22:15:54.137Z,46.2
2023-01-25T22:21:12.833Z,46.3
2023-01-25T22:26:31.548Z,46.3
2023-01-25T22:31:50.181Z,45.5
2023-01-25T22:37:09.260Z,45.6
2023-01-25T22:42:27.427Z,45.6
2023-01-25T22:47:46.214Z,45.5
2023-01-25T22:53:04.707Z,46.3
2023-01-25T22:58:23.505Z,46.3
2023-01-25T23:03:42.009Z,45.6
2023-01-25T23:09:00.890Z,46.4
2023-01-25T23:14:19.127Z,46.3
2023-01-25T23:19:37.865Z,45.9
2023-01-25T23:24:56.756Z,45.3
2023-01-25T23:30:15.525Z,46.2
2023-01-25T23:35:33.764Z,45.6
2023-01-25T23:40:52.269Z,45.9
2023-01-25T23:46:10.651Z,46.3
2023-01-25T23:51:28.834Z,46.6
2023-01-25T23:56:47.380Z,46.1
